Nearby METAR Reports

 

K6B9 - Skaneateles, New York, USA
Distance from station: SE 7mi, 12km
Updated: Wed, 12-May-2021 6:35am EDT
Mostly cloudy
Mostly cloudy
 Wind from W
Wind: W 9 mph , 15 km/h, Gust: 16 mph , 26 km/h
Temperature: 41°F , 5°C
Wind Chill: 35°F , 2°C
Dew Point: 39°F , 4°C
Humidity: 93%
Barometer: 30.18 inHg , 1022 hPa
Clouds: Mostly cloudy
Visibility: 10 miles , 16 km
Cloud details: Partly cloudy 6500 ft
Mostly cloudy 7500 ft
2021/05/12 10:35 K6B9 121035Z AUTO 28008G14KT 10SM SCT065 BKN075 05/04 A3018 RMK AO2
KSYR - Syracuse, New York, USA
Distance from station: ENE 24mi, 38km
Updated: Wed, 12-May-2021 5:54am EDT
Mostly cloudy
Mostly cloudy
 Wind from W
Wind: W 7 mph , 11 km/h
Temperature: 43°F , 6°C
Wind Chill: 39°F , 4°C
Dew Point: 37°F , 3°C
Humidity: 81%
Barometer: 30.17 inHg , 1021.7 hPa
Clouds: Mostly cloudy
Visibility: 10 miles , 16 km
Cloud details: Partly cloudy 1900 ft
Mostly cloudy 2700 ft
Mostly cloudy 6500 ft
2021/05/12 09:54 KSYR 120954Z 27006KT 10SM SCT019 BKN027 BKN065 06/03 A3017 RMK AO2 SLP216 T00610033
 
KFZY - Fulton, New York, USA
Distance from station: NNE 26mi, 41km
Updated: Wed, 12-May-2021 5:54am EDT
Overcast
Overcast
 Wind from WNW
Wind: WNW 14 mph , 22 km/h, Gust: 23 mph , 37 km/h
Temperature: 43°F , 6°C
Wind Chill: 36°F , 2°C
Dew Point: 37°F , 3°C
Humidity: 81%
Barometer: 30.17 inHg , 1021.7 hPa
Clouds: Overcast
Cloud details: Overcast 7000 ft
2021/05/12 09:54 KFZY 120954Z AUTO 29012G20KT OVC070 06/03 A3017 RMK AO2 SLP219 T00610028 $
KN03 - Cortland, New York, USA
Distance from station: SSE 32mi, 51km
Updated: Wed, 12-May-2021 6:35am EDT
Overcast
Overcast
 Wind from WNW
Wind: WNW 8 mph , 13 km/h
Temperature: 39°F , 4°C
Wind Chill: 33°F , 1°C
Dew Point: 36°F , 2°C
Humidity: 87%
Barometer: 30.18 inHg , 1022 hPa
Clouds: Overcast
Visibility: 10 miles , 16 km
Cloud details: Overcast 1600 ft
2021/05/12 10:35 KN03 121035Z AUTO 30007KT 268V348 10SM OVC016 04/02 A3018 RMK AO2
 
KSDC - Williamson/Sodus, New York, USA
Distance from station: WNW 34mi, 54km
Updated: Wed, 12-May-2021 6:35am EDT
Partly cloudy
Partly cloudy
 Wind from W
Wind: W 3 mph , 6 km/h
Temperature: 41°F , 5°C
Dew Point: 36°F , 2°C
Humidity: 81%
Barometer: 30.22 inHg , 1023.4 hPa
Clouds: Partly cloudy
Visibility: 10 miles , 16 km
Cloud details: Partly cloudy 7500 ft
2021/05/12 10:35 KSDC 121035Z AUTO 26003KT 10SM SCT075 05/02 A3022 RMK AO2
KPEO - Penn Yan, New York, USA
Distance from station: SW 35mi, 57km
Updated: Wed, 12-May-2021 5:53am EDT
Partly cloudy
Partly cloudy
 Wind from WNW
Wind: WNW 12 mph , 19 km/h
Temperature: 43°F , 6°C
Wind Chill: 37°F , 3°C
Dew Point: 34°F , 1°C
Humidity: 71%
Barometer: 30.17 inHg , 1021.7 hPa
Clouds: Partly cloudy
Visibility: 10 miles , 16 km
Cloud details: Partly cloudy 5500 ft
2021/05/12 09:53 KPEO 120953Z AUTO 30010KT 10SM SCT055 06/01 A3017 RMK AO2 SLP221 T00610006
 
KITH - Ithaca/Tompkins, New York, USA
Distance from station: S 37mi, 59km
Updated: Wed, 12-May-2021 6:36am EDT
Mostly cloudy
Mostly cloudy
 Wind from NNW
Wind: NNW 10 mph , 17 km/h
Temperature: 39°F , 4°C
Wind Chill: 32°F , 0°C
Dew Point: 36°F , 2°C
Humidity: 87%
Barometer: 30.19 inHg , 1022.4 hPa
Clouds: Mostly cloudy
Visibility: 10 miles , 16 km
Cloud details: Mostly cloudy 2200 ft
Mostly cloudy 6000 ft
2021/05/12 10:36 KITH 121036Z 34009KT 10SM BKN022 BKN060 04/02 A3019 RMK AO2 PNO $
KVGC - Hamilton Municip, New York, USA
Distance from station: E 50mi, 80km
Updated: Wed, 12-May-2021 6:35am EDT
Overcast
Overcast
 Wind from NW
Wind: NW 9 mph , 15 km/h
Temperature: 39°F , 4°C
Wind Chill: 33°F , 1°C
Dew Point: 36°F , 2°C
Humidity: 87%
Barometer: 30.16 inHg , 1021.3 hPa
Clouds: Overcast
Visibility: 10 miles , 16 km
Cloud details: Overcast 1100 ft
2021/05/12 10:35 KVGC 121035Z AUTO 32008KT 10SM OVC011 04/02 A3016 RMK AO2